sensor_id;sensor_type;location;lat;lon;timestamp;temperature;humidity
23669;DHT22;12011;47.422;15.018;2023-06-24T00:00:57;13.50;99.90
23669;DHT22;12011;47.422;15.018;2023-06-24T00:03:29;13.50;99.90
23669;DHT22;12011;47.422;15.018;2023-06-24T00:06:03;13.50;99.90
23669;DHT22;12011;47.422;15.018;2023-06-24T00:08:32;13.50;99.90
23669;DHT22;12011;47.422;15.018;2023-06-24T00:11:03;13.40;99.90
23669;DHT22;12011;47.422;15.018;2023-06-24T00:13:33;13.30;99.90
23669;DHT22;12011;47.422;15.018;2023-06-24T00:16:04;13.30;99.90
23669;DHT22;12011;47.422;15.018;2023-06-24T00:18:37;13.30;99.90
23669;DHT22;12011;47.422;15.018;2023-06-24T00:21:08;13.30;99.90
23669;DHT22;12011;47.422;15.018;2023-06-24T00:23:37;13.40;99.90
23669;DHT22;12011;47.422;15.018;2023-06-24T00:26:07;13.30;99.90
23669;DHT22;12011;47.422;15.018;2023-06-24T00:28:36;13.30;99.90
23669;DHT22;12011;47.422;15.018;2023-06-24T00:31:06;13.20;99.90
23669;DHT22;12011;47.422;15.018;2023-06-24T00:33:40;13.10;99.90
23669;DHT22;12011;47.422;15.018;2023-06-24T00:36:10;13.10;99.90
23669;DHT22;12011;47.422;15.018;2023-06-24T00:38:40;13.10;99.90
23669;DHT22;12011;47.422;15.018;2023-06-24T00:41:10;13.10;99.90
23669;DHT22;12011;47.422;15.018;2023-06-24T00:43:39;13.10;99.90
23669;DHT22;12011;47.422;15.018;2023-06-24T00:46:09;13.30;99.90
23669;DHT22;12011;47.422;15.018;2023-06-24T00:48:44;13.30;99.90
23669;DHT22;12011;47.422;15.018;2023-06-24T00:51:14;13.30;99.90
23669;DHT22;12011;47.422;15.018;2023-06-24T00:53:46;13.30;99.90
23669;DHT22;12011;47.422;15.018;2023-06-24T00:56:16;13.40;99.90
23669;DHT22;12011;47.422;15.018;2023-06-24T00:58:47;13.40;99.90
23669;DHT22;12011;47.422;15.018;2023-06-24T01:01:17;13.40;99.90
23669;DHT22;12011;47.422;15.018;2023-06-24T01:03:53;13.40;99.90
23669;DHT22;12011;47.422;15.018;2023-06-24T01:06:49;13.40;99.90
23669;DHT22;12011;47.422;15.018;2023-06-24T01:09:18;13.40;99.90
23669;DHT22;12011;47.422;15.018;2023-06-24T01:11:57;13.40;99.90
23669;DHT22;12011;47.422;15.018;2023-06-24T01:14:49;13.40;99.90
23669;DHT22;12011;47.422;15.018;2023-06-24T01:17:33;13.40;99.90
23669;DHT22;12011;47.422;15.018;2023-06-24T01:20:31;13.40;99.90
23669;DHT22;12011;47.422;15.018;2023-06-24T03:35:10;13.20;99.90
23669;DHT22;12011;47.422;15.018;2023-06-24T03:37:40;13.30;99.90
23669;DHT22;12011;47.422;15.018;2023-06-24T03:40:11;13.30;99.90
23669;DHT22;12011;47.422;15.018;2023-06-24T03:45:39;13.40;99.90
23669;DHT22;12011;47.422;15.018;2023-06-24T03:48:27;13.50;99.90
23669;DHT22;12011;47.422;15.018;2023-06-24T03:57:46;13.70;99.90
23669;DHT22;12011;47.422;15.018;2023-06-24T04:04:41;14.20;99.90
23669;DHT22;12011;47.422;15.018;2023-06-24T05:05:17;18.80;99.90
23669;DHT22;12011;47.422;15.018;2023-06-24T05:07:47;19.70;95.90
23669;DHT22;12011;47.422;15.018;2023-06-24T05:10:16;19.40;96.50
23669;DHT22;12011;47.422;15.018;2023-06-24T05:12:46;19.20;97.30
23669;DHT22;12011;47.422;15.018;2023-06-24T05:15:15;19.10;95.00
23669;DHT22;12011;47.422;15.018;2023-06-24T05:17:45;19.00;97.10
23669;DHT22;12011;47.422;15.018;2023-06-24T05:20:17;18.60;95.20
23669;DHT22;12011;47.422;15.018;2023-06-24T05:22:47;18.20;93.50
23669;DHT22;12011;47.422;15.018;2023-06-24T05:25:17;18.00;94.90
23669;DHT22;12011;47.422;15.018;2023-06-24T05:27:47;18.00;96.80
23669;DHT22;12011;47.422;15.018;2023-06-24T05:30:16;18.00;99.90
23669;DHT22;12011;47.422;15.018;2023-06-24T05:32:46;17.90;99.90
23669;DHT22;12011;47.422;15.018;2023-06-24T05:35:19;17.70;99.50
23669;DHT22;12011;47.422;15.018;2023-06-24T05:37:52;17.60;99.90
23669;DHT22;12011;47.422;15.018;2023-06-24T05:40:21;18.00;99.90
23669;DHT22;12011;47.422;15.018;2023-06-24T05:42:51;17.90;96.70
23669;DHT22;12011;47.422;15.018;2023-06-24T05:45:21;18.00;98.60
23669;DHT22;12011;47.422;15.018;2023-06-24T05:47:54;18.30;99.90
23669;DHT22;12011;47.422;15.018;2023-06-24T05:50:27;18.30;94.60
23669;DHT22;12011;47.422;15.018;2023-06-24T05:52:57;18.40;97.60
23669;DHT22;12011;47.422;15.018;2023-06-24T05:55:26;18.30;94.90
23669;DHT22;12011;47.422;15.018;2023-06-24T05:58:28;18.40;95.00
23669;DHT22;12011;47.422;15.018;2023-06-24T06:00:57;18.40;94.10
23669;DHT22;12011;47.422;15.018;2023-06-24T06:07:26;18.40;94.40
23669;DHT22;12011;47.422;15.018;2023-06-24T06:14:00;17.90;93.20
23669;DHT22;12011;47.422;15.018;2023-06-24T06:16:48;17.90;97.70
23669;DHT22;12011;47.422;15.018;2023-06-24T06:19:18;17.70;90.50
23669;DHT22;12011;47.422;15.018;2023-06-24T06:21:49;17.70;93.30
23669;DHT22;12011;47.422;15.018;2023-06-24T06:37:03;18.00;94.00
23669;DHT22;12011;47.422;15.018;2023-06-24T06:39:34;18.10;89.10
23669;DHT22;12011;47.422;15.018;2023-06-24T06:42:04;18.10;98.40
23669;DHT22;12011;47.422;15.018;2023-06-24T06:44:34;17.90;93.10
23669;DHT22;12011;47.422;15.018;2023-06-24T06:47:04;18.00;93.40
23669;DHT22;12011;47.422;15.018;2023-06-24T06:49:35;18.00;92.90
23669;DHT22;12011;47.422;15.018;2023-06-24T06:52:07;18.00;97.00
23669;DHT22;12011;47.422;15.018;2023-06-24T06:54:37;17.90;93.00
23669;DHT22;12011;47.422;15.018;2023-06-24T06:57:06;17.90;92.10
23669;DHT22;12011;47.422;15.018;2023-06-24T06:59:36;17.90;93.90
23669;DHT22;12011;47.422;15.018;2023-06-24T07:02:06;18.00;94.50
23669;DHT22;12011;47.422;15.018;2023-06-24T07:04:36;18.00;95.80
23669;DHT22;12011;47.422;15.018;2023-06-24T07:07:08;18.10;93.10
23669;DHT22;12011;47.422;15.018;2023-06-24T07:09:38;18.20;93.90
23669;DHT22;12011;47.422;15.018;2023-06-24T07:12:08;18.10;95.40
23669;DHT22;12011;47.422;15.018;2023-06-24T07:14:39;18.30;92.70
23669;DHT22;12011;47.422;15.018;2023-06-24T07:17:09;18.90;89.10
23669;DHT22;12011;47.422;15.018;2023-06-24T07:19:38;19.10;87.80
23669;DHT22;12011;47.422;15.018;2023-06-24T07:22:10;19.40;90.50
23669;DHT22;12011;47.422;15.018;2023-06-24T07:24:40;19.60;91.80
23669;DHT22;12011;47.422;15.018;2023-06-24T07:27:10;19.80;87.80
23669;DHT22;12011;47.422;15.018;2023-06-24T07:29:39;19.80;87.90
23669;DHT22;12011;47.422;15.018;2023-06-24T07:32:09;19.80;83.80
23669;DHT22;12011;47.422;15.018;2023-06-24T07:34:39;19.70;83.00
23669;DHT22;12011;47.422;15.018;2023-06-24T07:37:11;20.00;84.30
23669;DHT22;12011;47.422;15.018;2023-06-24T07:39:40;20.00;90.20
23669;DHT22;12011;47.422;15.018;2023-06-24T07:42:10;20.10;81.30
23669;DHT22;12011;47.422;15.018;2023-06-24T07:44:44;20.30;86.30
23669;DHT22;12011;47.422;15.018;2023-06-24T07:47:16;20.30;84.00
23669;DHT22;12011;47.422;15.018;2023-06-24T07:49:46;20.30;77.20
23669;DHT22;12011;47.422;15.018;2023-06-24T07:52:18;20.20;71.30
23669;DHT22;12011;47.422;15.018;2023-06-24T07:54:47;20.20;69.90
23669;DHT22;12011;47.422;15.018;2023-06-24T07:57:18;20.40;79.80
23669;DHT22;12011;47.422;15.018;2023-06-24T07:59:47;20.80;78.20
23669;DHT22;12011;47.422;15.018;2023-06-24T08:02:17;21.20;82.40
23669;DHT22;12011;47.422;15.018;2023-06-24T08:04:46;21.80;80.20
23669;DHT22;12011;47.422;15.018;2023-06-24T08:07:19;21.70;75.40
23669;DHT22;12011;47.422;15.018;2023-06-24T08:09:48;21.80;71.70
23669;DHT22;12011;47.422;15.018;2023-06-24T08:12:18;21.80;63.30
23669;DHT22;12011;47.422;15.018;2023-06-24T08:14:47;22.60;61.30
23669;DHT22;12011;47.422;15.018;2023-06-24T08:17:18;22.50;65.90
23669;DHT22;12011;47.422;15.018;2023-06-24T08:19:48;22.70;62.60
23669;DHT22;12011;47.422;15.018;2023-06-24T08:22:20;22.90;66.30
23669;DHT22;12011;47.422;15.018;2023-06-24T08:24:49;22.60;62.10
23669;DHT22;12011;47.422;15.018;2023-06-24T08:27:19;22.50;60.70
23669;DHT22;12011;47.422;15.018;2023-06-24T08:29:48;22.50;63.80
23669;DHT22;12011;47.422;15.018;2023-06-24T08:32:18;22.10;70.30
23669;DHT22;12011;47.422;15.018;2023-06-24T08:34:47;22.30;69.80
23669;DHT22;12011;47.422;15.018;2023-06-24T08:37:20;21.80;68.50
23669;DHT22;12011;47.422;15.018;2023-06-24T08:39:49;21.90;71.40
23669;DHT22;12011;47.422;15.018;2023-06-24T08:42:19;21.90;62.90
23669;DHT22;12011;47.422;15.018;2023-06-24T08:44:48;22.00;69.00
23669;DHT22;12011;47.422;15.018;2023-06-24T08:47:18;21.70;62.70
23669;DHT22;12011;47.422;15.018;2023-06-24T08:49:53;21.70;69.40
23669;DHT22;12011;47.422;15.018;2023-06-24T08:52:30;21.70;65.40
23669;DHT22;12011;47.422;15.018;2023-06-24T08:55:02;21.70;62.40
23669;DHT22;12011;47.422;15.018;2023-06-24T08:57:34;21.80;66.20
23669;DHT22;12011;47.422;15.018;2023-06-24T09:00:04;22.40;65.90
23669;DHT22;12011;47.422;15.018;2023-06-24T09:02:37;22.60;64.30
23669;DHT22;12011;47.422;15.018;2023-06-24T09:05:08;22.80;65.60
23669;DHT22;12011;47.422;15.018;2023-06-24T09:07:40;22.80;56.80
23669;DHT22;12011;47.422;15.018;2023-06-24T09:10:10;22.70;58.20
23669;DHT22;12011;47.422;15.018;2023-06-24T09:12:39;23.80;62.60
23669;DHT22;12011;47.422;15.018;2023-06-24T09:15:14;25.00;59.30
23669;DHT22;12011;47.422;15.018;2023-06-24T09:17:44;24.10;55.60
23669;DHT22;12011;47.422;15.018;2023-06-24T09:20:15;23.70;56.80
23669;DHT22;12011;47.422;15.018;2023-06-24T09:22:50;23.20;54.90
23669;DHT22;12011;47.422;15.018;2023-06-24T09:25:20;22.80;59.90
23669;DHT22;12011;47.422;15.018;2023-06-24T09:27:50;23.60;59.80
23669;DHT22;12011;47.422;15.018;2023-06-24T09:30:23;23.80;54.30
23669;DHT22;12011;47.422;15.018;2023-06-24T09:32:53;24.20;59.80
23669;DHT22;12011;47.422;15.018;2023-06-24T09:35:25;24.10;63.70
23669;DHT22;12011;47.422;15.018;2023-06-24T09:37:57;23.80;54.90
23669;DHT22;12011;47.422;15.018;2023-06-24T09:40:28;23.40;58.60
23669;DHT22;12011;47.422;15.018;2023-06-24T09:42:58;21.90;57.00
23669;DHT22;12011;47.422;15.018;2023-06-24T09:45:30;21.40;62.20
23669;DHT22;12011;47.422;15.018;2023-06-24T09:47:59;21.50;66.10
23669;DHT22;12011;47.422;15.018;2023-06-24T09:50:30;21.50;64.10
23669;DHT22;12011;47.422;15.018;2023-06-24T09:53:04;20.60;69.20
23669;DHT22;12011;47.422;15.018;2023-06-24T09:55:34;20.20;75.00
23669;DHT22;12011;47.422;15.018;2023-06-24T09:58:11;20.50;72.50
23669;DHT22;12011;47.422;15.018;2023-06-24T10:00:41;21.00;77.80
23669;DHT22;12011;47.422;15.018;2023-06-24T10:03:11;21.20;82.40
23669;DHT22;12011;47.422;15.018;2023-06-24T10:05:41;21.00;74.50
23669;DHT22;12011;47.422;15.018;2023-06-24T10:08:14;21.30;64.80
23669;DHT22;12011;47.422;15.018;2023-06-24T10:10:43;21.20;67.00
23669;DHT22;12011;47.422;15.018;2023-06-24T10:13:13;21.10;71.80
23669;DHT22;12011;47.422;15.018;2023-06-24T10:15:43;21.10;60.90
23669;DHT22;12011;47.422;15.018;2023-06-24T10:18:37;21.30;72.40
23669;DHT22;12011;47.422;15.018;2023-06-24T10:21:09;21.90;66.00
23669;DHT22;12011;47.422;15.018;2023-06-24T10:23:51;22.00;58.10
23669;DHT22;12011;47.422;15.018;2023-06-24T10:26:23;22.70;59.60
23669;DHT22;12011;47.422;15.018;2023-06-24T10:29:09;21.90;63.20
23669;DHT22;12011;47.422;15.018;2023-06-24T10:32:04;23.30;66.80
23669;DHT22;12011;47.422;15.018;2023-06-24T10:34:45;23.30;55.50
23669;DHT22;12011;47.422;15.018;2023-06-24T10:37:20;22.10;58.30
23669;DHT22;12011;47.422;15.018;2023-06-24T10:39:54;22.10;59.10
23669;DHT22;12011;47.422;15.018;2023-06-24T10:42:30;22.40;63.20
23669;DHT22;12011;47.422;15.018;2023-06-24T10:45:19;23.10;60.40
23669;DHT22;12011;47.422;15.018;2023-06-24T10:47:50;24.20;67.00
23669;DHT22;12011;47.422;15.018;2023-06-24T10:50:22;25.60;57.10
23669;DHT22;12011;47.422;15.018;2023-06-24T10:52:53;26.30;56.40
23669;DHT22;12011;47.422;15.018;2023-06-24T10:55:26;26.50;52.50
23669;DHT22;12011;47.422;15.018;2023-06-24T10:58:07;25.60;53.20
23669;DHT22;12011;47.422;15.018;2023-06-24T11:00:38;25.30;53.90
23669;DHT22;12011;47.422;15.018;2023-06-24T11:03:10;24.90;57.20
23669;DHT22;12011;47.422;15.018;2023-06-24T11:05:41;23.60;55.00
23669;DHT22;12011;47.422;15.018;2023-06-24T11:08:12;23.90;55.00
23669;DHT22;12011;47.422;15.018;2023-06-24T11:10:48;24.60;57.80
23669;DHT22;12011;47.422;15.018;2023-06-24T11:13:20;23.80;55.80
23669;DHT22;12011;47.422;15.018;2023-06-24T11:15:50;22.50;58.40
23669;DHT22;12011;47.422;15.018;2023-06-24T11:18:20;21.90;57.10
23669;DHT22;12011;47.422;15.018;2023-06-24T11:20:54;21.90;62.00
23669;DHT22;12011;47.422;15.018;2023-06-24T11:23:24;21.90;59.00
23669;DHT22;12011;47.422;15.018;2023-06-24T11:26:03;22.00;58.30
23669;DHT22;12011;47.422;15.018;2023-06-24T11:28:32;21.80;61.10
23669;DHT22;12011;47.422;15.018;2023-06-24T11:31:06;22.50;60.70
23669;DHT22;12011;47.422;15.018;2023-06-24T11:33:36;23.40;58.50
23669;DHT22;12011;47.422;15.018;2023-06-24T11:36:09;23.50;60.00
23669;DHT22;12011;47.422;15.018;2023-06-24T11:38:39;23.70;57.50
23669;DHT22;12011;47.422;15.018;2023-06-24T11:41:11;22.30;60.30
23669;DHT22;12011;47.422;15.018;2023-06-24T11:43:44;21.40;60.90
23669;DHT22;12011;47.422;15.018;2023-06-24T11:46:21;21.20;74.40
23669;DHT22;12011;47.422;15.018;2023-06-24T11:48:50;20.50;74.00
23669;DHT22;12011;47.422;15.018;2023-06-24T11:51:23;20.60;80.90
23669;DHT22;12011;47.422;15.018;2023-06-24T11:53:58;20.20;72.20
23669;DHT22;12011;47.422;15.018;2023-06-24T11:56:37;20.70;67.40
23669;DHT22;12011;47.422;15.018;2023-06-24T11:59:16;20.10;72.90
23669;DHT22;12011;47.422;15.018;2023-06-24T12:01:53;20.30;67.70
23669;DHT22;12011;47.422;15.018;2023-06-24T12:04:28;20.30;75.00
23669;DHT22;12011;47.422;15.018;2023-06-24T12:06:58;20.10;73.50
23669;DHT22;12011;47.422;15.018;2023-06-24T12:09:29;20.90;73.20
23669;DHT22;12011;47.422;15.018;2023-06-24T12:12:01;21.70;67.90
23669;DHT22;12011;47.422;15.018;2023-06-24T12:14:32;21.40;79.60
23669;DHT22;12011;47.422;15.018;2023-06-24T12:17:02;21.70;76.90
23669;DHT22;12011;47.422;15.018;2023-06-24T12:19:32;21.30;68.00
23669;DHT22;12011;47.422;15.018;2023-06-24T12:22:03;20.80;65.90
23669;DHT22;12011;47.422;15.018;2023-06-24T12:24:33;20.50;75.60
23669;DHT22;12011;47.422;15.018;2023-06-24T12:27:05;20.60;70.50
23669;DHT22;12011;47.422;15.018;2023-06-24T12:29:35;20.40;72.00
23669;DHT22;12011;47.422;15.018;2023-06-24T12:32:06;20.90;64.90
23669;DHT22;12011;47.422;15.018;2023-06-24T12:34:36;21.20;67.80
23669;DHT22;12011;47.422;15.018;2023-06-24T12:37:06;21.20;72.10
23669;DHT22;12011;47.422;15.018;2023-06-24T12:39:35;21.10;74.50
23669;DHT22;12011;47.422;15.018;2023-06-24T12:42:08;20.90;72.20
23669;DHT22;12011;47.422;15.018;2023-06-24T12:44:38;20.70;75.80
23669;DHT22;12011;47.422;15.018;2023-06-24T12:47:07;21.10;72.60
23669;DHT22;12011;47.422;15.018;2023-06-24T12:49:37;20.70;68.30
23669;DHT22;12011;47.422;15.018;2023-06-24T12:52:07;20.10;76.90
23669;DHT22;12011;47.422;15.018;2023-06-24T12:54:39;20.10;70.80
23669;DHT22;12011;47.422;15.018;2023-06-24T12:57:11;20.10;72.60
23669;DHT22;12011;47.422;15.018;2023-06-24T12:59:41;19.70;75.00
23669;DHT22;12011;47.422;15.018;2023-06-24T13:02:10;19.90;77.30
23669;DHT22;12011;47.422;15.018;2023-06-24T13:04:40;20.40;78.90
23669;DHT22;12011;47.422;15.018;2023-06-24T13:07:09;20.30;83.30
23669;DHT22;12011;47.422;15.018;2023-06-24T13:09:39;20.10;68.90
23669;DHT22;12011;47.422;15.018;2023-06-24T13:12:11;19.40;73.90
23669;DHT22;12011;47.422;15.018;2023-06-24T13:14:41;19.70;77.60
23669;DHT22;12011;47.422;15.018;2023-06-24T13:17:10;19.80;80.20
23669;DHT22;12011;47.422;15.018;2023-06-24T13:19:41;20.10;69.20
23669;DHT22;12011;47.422;15.018;2023-06-24T13:22:10;20.00;77.80
23669;DHT22;12011;47.422;15.018;2023-06-24T13:24:40;20.00;77.20
23669;DHT22;12011;47.422;15.018;2023-06-24T13:27:12;19.90;79.30
23669;DHT22;12011;47.422;15.018;2023-06-24T13:29:42;19.80;78.20
23669;DHT22;12011;47.422;15.018;2023-06-24T13:32:12;19.70;75.10
23669;DHT22;12011;47.422;15.018;2023-06-24T13:34:42;19.50;78.00
23669;DHT22;12011;47.422;15.018;2023-06-24T13:37:11;19.40;84.00
23669;DHT22;12011;47.422;15.018;2023-06-24T13:39:43;19.60;82.70
23669;DHT22;12011;47.422;15.018;2023-06-24T13:42:16;20.10;83.50
23669;DHT22;12011;47.422;15.018;2023-06-24T13:44:45;20.60;75.10
23669;DHT22;12011;47.422;15.018;2023-06-24T13:47:15;20.40;75.60
23669;DHT22;12011;47.422;15.018;2023-06-24T13:49:44;20.20;80.70
23669;DHT22;12011;47.422;15.018;2023-06-24T13:52:14;20.10;77.30
23669;DHT22;12011;47.422;15.018;2023-06-24T13:54:43;20.00;80.20
23669;DHT22;12011;47.422;15.018;2023-06-24T13:57:16;19.80;79.00
23669;DHT22;12011;47.422;15.018;2023-06-24T13:59:45;19.70;80.10
23669;DHT22;12011;47.422;15.018;2023-06-24T14:02:15;19.60;83.40
23669;DHT22;12011;47.422;15.018;2023-06-24T14:04:45;19.50;80.30
23669;DHT22;12011;47.422;15.018;2023-06-24T14:07:15;19.70;73.60
23669;DHT22;12011;47.422;15.018;2023-06-24T14:09:44;19.90;74.00
23669;DHT22;12011;47.422;15.018;2023-06-24T14:12:17;19.50;76.40
23669;DHT22;12011;47.422;15.018;2023-06-24T14:14:46;19.40;85.30
23669;DHT22;12011;47.422;15.018;2023-06-24T14:17:16;19.70;77.50
23669;DHT22;12011;47.422;15.018;2023-06-24T14:19:46;19.70;83.90
23669;DHT22;12011;47.422;15.018;2023-06-24T14:22:16;20.00;77.60
23669;DHT22;12011;47.422;15.018;2023-06-24T14:24:47;19.70;72.00
23669;DHT22;12011;47.422;15.018;2023-06-24T14:27:19;19.70;82.10
23669;DHT22;12011;47.422;15.018;2023-06-24T14:29:49;19.60;81.70
23669;DHT22;12011;47.422;15.018;2023-06-24T14:32:18;19.60;89.60
23669;DHT22;12011;47.422;15.018;2023-06-24T14:34:48;19.70;72.70
23669;DHT22;12011;47.422;15.018;2023-06-24T14:37:17;19.40;82.00
23669;DHT22;12011;47.422;15.018;2023-06-24T14:39:47;19.30;80.50
23669;DHT22;12011;47.422;15.018;2023-06-24T14:42:19;19.10;80.10
23669;DHT22;12011;47.422;15.018;2023-06-24T14:44:49;18.90;85.50
23669;DHT22;12011;47.422;15.018;2023-06-24T14:47:18;18.80;91.20
23669;DHT22;12011;47.422;15.018;2023-06-24T14:49:48;19.00;89.70
23669;DHT22;12011;47.422;15.018;2023-06-24T14:52:17;18.90;89.10
23669;DHT22;12011;47.422;15.018;2023-06-24T14:54:47;18.80;90.70
23669;DHT22;12011;47.422;15.018;2023-06-24T14:57:20;19.60;85.30
23669;DHT22;12011;47.422;15.018;2023-06-24T14:59:52;19.80;86.20
23669;DHT22;12011;47.422;15.018;2023-06-24T15:02:21;19.90;77.00
23669;DHT22;12011;47.422;15.018;2023-06-24T15:04:51;20.10;75.50
23669;DHT22;12011;47.422;15.018;2023-06-24T15:07:21;20.10;72.70
23669;DHT22;12011;47.422;15.018;2023-06-24T15:09:51;19.90;68.90
23669;DHT22;12011;47.422;15.018;2023-06-24T15:12:23;19.70;69.00
23669;DHT22;12011;47.422;15.018;2023-06-24T15:14:52;19.40;78.10
23669;DHT22;12011;47.422;15.018;2023-06-24T15:17:22;19.50;77.90
23669;DHT22;12011;47.422;15.018;2023-06-24T15:19:51;19.30;77.00
23669;DHT22;12011;47.422;15.018;2023-06-24T15:22:21;19.20;71.30
23669;DHT22;12011;47.422;15.018;2023-06-24T15:24:51;18.90;68.70
23669;DHT22;12011;47.422;15.018;2023-06-24T15:27:23;18.80;68.50
23669;DHT22;12011;47.422;15.018;2023-06-24T15:29:53;18.70;74.40
23669;DHT22;12011;47.422;15.018;2023-06-24T15:32:23;18.80;74.90
23669;DHT22;12011;47.422;15.018;2023-06-24T15:34:52;18.50;77.50
23669;DHT22;12011;47.422;15.018;2023-06-24T15:37:22;18.60;72.40
23669;DHT22;12011;47.422;15.018;2023-06-24T15:39:52;18.40;78.10
23669;DHT22;12011;47.422;15.018;2023-06-24T15:42:24;18.50;82.70
23669;DHT22;12011;47.422;15.018;2023-06-24T15:44:56;18.80;79.30
23669;DHT22;12011;47.422;15.018;2023-06-24T15:47:25;19.00;74.20
23669;DHT22;12011;47.422;15.018;2023-06-24T15:49:57;19.20;83.70
23669;DHT22;12011;47.422;15.018;2023-06-24T15:52:26;19.60;81.50
23669;DHT22;12011;47.422;15.018;2023-06-24T15:54:56;19.80;83.00
23669;DHT22;12011;47.422;15.018;2023-06-24T15:57:28;19.90;72.60
23669;DHT22;12011;47.422;15.018;2023-06-24T15:59:57;20.00;69.80
23669;DHT22;12011;47.422;15.018;2023-06-24T16:02:27;19.80;75.50
23669;DHT22;12011;47.422;15.018;2023-06-24T16:04:57;19.70;70.90
23669;DHT22;12011;47.422;15.018;2023-06-24T16:07:31;19.60;78.00
23669;DHT22;12011;47.422;15.018;2023-06-24T16:10:01;19.50;75.00
23669;DHT22;12011;47.422;15.018;2023-06-24T16:12:35;19.50;84.50
23669;DHT22;12011;47.422;15.018;2023-06-24T16:15:05;19.60;77.20
23669;DHT22;12011;47.422;15.018;2023-06-24T16:17:38;19.80;88.50
23669;DHT22;12011;47.422;15.018;2023-06-24T16:20:08;19.70;83.30
23669;DHT22;12011;47.422;15.018;2023-06-24T16:22:43;19.70;80.90
23669;DHT22;12011;47.422;15.018;2023-06-24T16:25:15;19.60;85.90
23669;DHT22;12011;47.422;15.018;2023-06-24T16:27:48;19.50;74.40
23669;DHT22;12011;47.422;15.018;2023-06-24T16:30:19;19.60;89.50
23669;DHT22;12011;47.422;15.018;2023-06-24T16:32:49;19.60;85.60
23669;DHT22;12011;47.422;15.018;2023-06-24T16:35:21;19.60;83.50
23669;DHT22;12011;47.422;15.018;2023-06-24T16:37:51;19.60;73.60
23669;DHT22;12011;47.422;15.018;2023-06-24T16:40:20;19.60;72.50
23669;DHT22;12011;47.422;15.018;2023-06-24T16:42:56;19.60;85.40
23669;DHT22;12011;47.422;15.018;2023-06-24T16:45:25;19.40;83.10
23669;DHT22;12011;47.422;15.018;2023-06-24T16:47:55;19.40;85.60
23669;DHT22;12011;47.422;15.018;2023-06-24T16:50:24;19.20;73.90
23669;DHT22;12011;47.422;15.018;2023-06-24T16:52:54;19.30;76.40
23669;DHT22;12011;47.422;15.018;2023-06-24T16:55:23;19.40;90.00
23669;DHT22;12011;47.422;15.018;2023-06-24T16:57:56;19.20;74.10
23669;DHT22;12011;47.422;15.018;2023-06-24T17:00:25;19.20;84.20
23669;DHT22;12011;47.422;15.018;2023-06-24T17:02:55;18.90;76.60
23669;DHT22;12011;47.422;15.018;2023-06-24T17:05:24;18.80;71.60
23669;DHT22;12011;47.422;15.018;2023-06-24T17:07:54;18.80;81.40
23669;DHT22;12011;47.422;15.018;2023-06-24T17:10:24;18.60;78.30
23669;DHT22;12011;47.422;15.018;2023-06-24T17:12:56;18.60;80.90
23669;DHT22;12011;47.422;15.018;2023-06-24T17:15:26;18.60;94.20
23669;DHT22;12011;47.422;15.018;2023-06-24T17:17:56;18.40;85.90
23669;DHT22;12011;47.422;15.018;2023-06-24T17:20:25;18.30;89.00
23669;DHT22;12011;47.422;15.018;2023-06-24T17:22:55;18.30;78.10
23669;DHT22;12011;47.422;15.018;2023-06-24T17:25:25;18.40;88.50
23669;DHT22;12011;47.422;15.018;2023-06-24T17:27:57;18.50;91.00
23669;DHT22;12011;47.422;15.018;2023-06-24T17:30:27;18.40;77.30
23669;DHT22;12011;47.422;15.018;2023-06-24T17:32:56;18.30;73.10
23669;DHT22;12011;47.422;15.018;2023-06-24T17:35:26;18.50;77.50
23669;DHT22;12011;47.422;15.018;2023-06-24T17:37:56;18.50;78.40
23669;DHT22;12011;47.422;15.018;2023-06-24T17:40:26;18.60;80.20
23669;DHT22;12011;47.422;15.018;2023-06-24T17:42:58;18.50;78.30
23669;DHT22;12011;47.422;15.018;2023-06-24T17:45:27;18.50;83.70
23669;DHT22;12011;47.422;15.018;2023-06-24T17:47:57;18.50;79.60
23669;DHT22;12011;47.422;15.018;2023-06-24T17:50:30;18.50;85.50
23669;DHT22;12011;47.422;15.018;2023-06-24T17:53:01;18.60;88.40
23669;DHT22;12011;47.422;15.018;2023-06-24T17:55:30;18.50;81.20
23669;DHT22;12011;47.422;15.018;2023-06-24T17:58:05;18.50;74.80
23669;DHT22;12011;47.422;15.018;2023-06-24T18:00:34;18.50;72.20
23669;DHT22;12011;47.422;15.018;2023-06-24T18:03:06;18.30;80.30
23669;DHT22;12011;47.422;15.018;2023-06-24T18:05:36;18.20;75.50
23669;DHT22;12011;47.422;15.018;2023-06-24T18:08:05;18.20;77.90
23669;DHT22;12011;47.422;15.018;2023-06-24T18:10:36;18.10;86.60
23669;DHT22;12011;47.422;15.018;2023-06-24T18:13:08;17.90;87.90
23669;DHT22;12011;47.422;15.018;2023-06-24T18:15:38;17.90;83.00
23669;DHT22;12011;47.422;15.018;2023-06-24T18:18:07;17.80;88.40
23669;DHT22;12011;47.422;15.018;2023-06-24T18:20:37;17.70;91.20
23669;DHT22;12011;47.422;15.018;2023-06-24T18:23:06;17.60;90.50
23669;DHT22;12011;47.422;15.018;2023-06-24T18:25:36;17.60;87.80
23669;DHT22;12011;47.422;15.018;2023-06-24T18:28:08;17.40;91.70
23669;DHT22;12011;47.422;15.018;2023-06-24T18:30:37;17.20;90.50
23669;DHT22;12011;47.422;15.018;2023-06-24T18:33:07;17.10;93.00
23669;DHT22;12011;47.422;15.018;2023-06-24T18:35:36;17.00;91.20
23669;DHT22;12011;47.422;15.018;2023-06-24T18:38:06;17.00;89.30
23669;DHT22;12011;47.422;15.018;2023-06-24T18:40:36;17.00;89.70
23669;DHT22;12011;47.422;15.018;2023-06-24T18:43:08;17.00;86.80
23669;DHT22;12011;47.422;15.018;2023-06-24T18:45:37;17.00;86.90
23669;DHT22;12011;47.422;15.018;2023-06-24T18:48:07;17.00;87.30
23669;DHT22;12011;47.422;15.018;2023-06-24T18:50:37;16.90;90.70
23669;DHT22;12011;47.422;15.018;2023-06-24T18:53:07;16.80;90.40
23669;DHT22;12011;47.422;15.018;2023-06-24T18:55:37;16.70;92.00
23669;DHT22;12011;47.422;15.018;2023-06-24T18:58:09;16.70;90.10
23669;DHT22;12011;47.422;15.018;2023-06-24T19:00:39;16.60;93.90
23669;DHT22;12011;47.422;15.018;2023-06-24T19:03:10;16.50;91.10
23669;DHT22;12011;47.422;15.018;2023-06-24T19:05:40;16.40;93.30
23669;DHT22;12011;47.422;15.018;2023-06-24T19:08:09;16.30;96.20
23669;DHT22;12011;47.422;15.018;2023-06-24T19:10:39;16.20;96.00
23669;DHT22;12011;47.422;15.018;2023-06-24T19:13:13;16.20;95.40
23669;DHT22;12011;47.422;15.018;2023-06-24T19:15:44;16.10;96.90
23669;DHT22;12011;47.422;15.018;2023-06-24T19:18:13;16.00;96.50
23669;DHT22;12011;47.422;15.018;2023-06-24T19:20:43;15.90;98.20
23669;DHT22;12011;47.422;15.018;2023-06-24T19:23:13;15.80;97.40
23669;DHT22;12011;47.422;15.018;2023-06-24T19:25:43;15.70;99.90